Time;durP1;ratioP1;P1;durP2;ratioP2;P2;SDS_P1;SDS_P2;PMS_P1;PMS_P2;Temp;Humidity;BMP_temperature;BMP_pressure;BME280_temperature;BME280_humidity;BME280_pressure;Samples;Min_cycle;Max_cycle;Signal;HPM_P1;HPM_P2
2021/09/11 00:02:05;;;;;;;14.48;6.70;;;;;;;15.42;69.91;100521.72;5033320;28;20075;-67
2021/09/11 00:04:31;;;;;;;16.20;6.93;;;;;;;15.44;69.62;100518.84;5033297;28;20045;-67
2021/09/11 00:06:57;;;;;;;18.58;7.28;;;;;;;15.41;70.04;100522.75;5030068;28;20530;-67
2021/09/11 00:09:23;;;;;;;10.85;6.15;;;;;;;15.39;70.16;100526.63;5013374;28;20029;-67
2021/09/11 00:11:48;;;;;;;22.83;7.38;;;;;;;15.37;70.29;100524.06;5012071;28;20077;-67
2021/09/11 00:14:14;;;;;;;15.30;6.95;;;;;;;15.37;70.50;100521.38;5016431;28;20033;-67
2021/09/11 00:16:39;;;;;;;14.73;6.70;;;;;;;15.33;70.48;100516.41;5024781;28;20017;-67
2021/09/11 00:19:05;;;;;;;16.00;6.57;;;;;;;15.31;70.49;100529.22;5019640;28;20053;-67
2021/09/11 00:21:30;;;;;;;15.02;7.65;;;;;;;15.30;70.48;100523.00;5021135;28;20052;-67
2021/09/11 00:23:56;;;;;;;16.48;6.90;;;;;;;15.25;70.39;100519.91;5024174;28;20044;-67
2021/09/11 00:26:21;;;;;;;13.45;6.30;;;;;;;15.25;70.57;100529.91;5016468;28;20041;-67
2021/09/11 00:28:47;;;;;;;15.32;6.30;;;;;;;15.21;70.18;100526.66;5019621;28;20460;-67
2021/09/11 00:31:13;;;;;;;14.60;6.15;;;;;;;15.20;70.21;100532.22;5024459;28;20036;-67
2021/09/11 00:33:39;;;;;;;18.40;7.70;;;;;;;15.11;69.98;100525.03;5023795;28;20045;-67
2021/09/11 00:36:04;;;;;;;16.65;6.18;;;;;;;15.06;70.14;100538.19;5013112;28;20038;-67
2021/09/11 00:38:30;;;;;;;13.27;7.32;;;;;;;15.05;70.41;100539.19;5012553;28;20034;-67
2021/09/11 00:40:55;;;;;;;16.35;6.15;;;;;;;14.98;71.07;100532.72;5016644;28;20033;-67
2021/09/11 00:43:23;;;;;;;17.35;6.53;;;;;;;14.95;71.90;100539.28;5047950;28;20079;-67
2021/09/11 00:45:48;;;;;;;10.85;6.65;;;;;;;14.95;71.77;100533.03;5047634;28;20033;-67
2021/09/11 00:48:14;;;;;;;17.17;5.93;;;;;;;14.90;72.05;100522.69;5032111;28;20061;-67
2021/09/11 00:50:39;;;;;;;17.02;6.88;;;;;;;14.88;71.54;100526.56;5032447;28;20025;-67
2021/09/11 00:53:05;;;;;;;14.10;6.05;;;;;;;14.88;71.18;100538.22;5032021;28;20408;-67
2021/09/11 00:55:30;;;;;;;14.25;5.88;;;;;;;14.87;71.64;100544.63;5019932;28;20030;-67
2021/09/11 00:57:56;;;;;;;14.77;6.43;;;;;;;14.76;71.87;100523.28;5012502;28;20036;-67
2021/09/11 01:00:21;;;;;;;13.73;6.10;;;;;;;14.85;72.01;100538.53;5012338;28;20113;-67
2021/09/11 01:02:47;;;;;;;11.55;6.00;;;;;;;14.81;72.14;100534.47;5011018;28;20049;-67
2021/09/11 01:05:13;;;;;;;18.27;6.53;;;;;;;14.82;72.21;100538.00;5019927;28;20065;-67
2021/09/11 01:07:41;;;;;;;14.38;6.18;;;;;;;14.82;71.80;100546.09;5011659;28;20062;-67
2021/09/11 01:10:08;;;;;;;15.50;6.07;;;;;;;14.75;71.54;100540.47;5011628;28;20081;-67
2021/09/11 01:12:35;;;;;;;14.45;5.95;;;;;;;14.80;71.69;100545.41;5011530;28;20494;-68
2021/09/11 01:15:02;;;;;;;17.67;5.75;;;;;;;14.78;71.50;100536.63;5011721;28;20033;-67
2021/09/11 01:17:28;;;;;;;10.15;5.85;;;;;;;14.71;71.47;100532.84;5011252;28;20034;-67
2021/09/11 01:19:53;;;;;;;15.02;6.00;;;;;;;14.67;71.45;100529.59;5011681;28;20045;-67
2021/09/11 01:22:19;;;;;;;17.40;6.50;;;;;;;14.68;72.13;100544.81;5011350;28;20041;-67
2021/09/11 01:25:04;;;;;;;12.70;6.13;;;;;;;14.67;72.09;100540.41;5011189;28;20026;-67
2021/09/11 01:27:31;;;;;;;12.60;5.85;;;;;;;14.60;71.94;100531.22;5011056;28;20482;-67
2021/09/11 01:30:16;;;;;;;12.88;6.43;;;;;;;14.59;71.94;100536.78;5011356;28;20029;-67
2021/09/11 01:32:42;;;;;;;11.25;6.22;;;;;;;14.53;72.23;100537.41;5009565;28;20092;-66
2021/09/11 01:35:08;;;;;;;13.07;6.32;;;;;;;14.53;72.51;100542.78;5011142;28;20033;-66
2021/09/11 01:37:34;;;;;;;10.88;6.25;;;;;;;14.53;72.94;100543.66;5028200;28;20017;-66
2021/09/11 01:40:00;;;;;;;17.77;7.15;;;;;;;14.51;73.02;100540.25;5031175;28;20405;-66
2021/09/11 01:42:27;;;;;;;11.00;6.70;;;;;;;14.48;72.63;100545.13;5027034;28;20049;-67
2021/09/11 01:44:59;;;;;;;9.90;5.47;;;;;;;14.46;72.62;100553.38;5011651;28;20030;-67
2021/09/11 01:47:25;;;;;;;10.68;6.55;;;;;;;14.42;72.48;100551.13;5010867;28;20616;-66
2021/09/11 01:49:51;;;;;;;12.00;5.57;;;;;;;14.39;73.20;100552.28;5024914;28;20421;-67
2021/09/11 01:52:17;;;;;;;16.52;6.28;;;;;;;14.27;73.12;100533.75;5009417;28;20026;-67
2021/09/11 01:54:42;;;;;;;13.85;5.90;;;;;;;14.32;73.57;100537.69;5010882;28;20029;-67
2021/09/11 01:57:12;;;;;;;16.92;6.90;;;;;;;14.35;73.42;100550.88;5010753;28;20485;-66
2021/09/11 01:59:39;;;;;;;18.13;7.43;;;;;;;14.28;73.35;100533.63;5010934;28;20104;-66
2021/09/11 02:02:06;;;;;;;12.60;6.43;;;;;;;14.35;73.64;100550.06;5011327;28;20049;-66
2021/09/11 02:04:32;;;;;;;11.13;6.93;;;;;;;14.34;73.75;100553.72;5011173;28;20471;-66
2021/09/11 02:06:58;;;;;;;10.65;6.22;;;;;;;14.33;73.47;100546.66;5011337;28;20574;-66
2021/09/11 02:09:24;;;;;;;13.68;7.00;;;;;;;14.28;73.60;100544.41;5011108;28;20056;-67
2021/09/11 02:11:50;;;;;;;11.27;6.22;;;;;;;14.25;73.29;100550.09;5009115;28;20046;-67
2021/09/11 02:14:15;;;;;;;12.27;6.35;;;;;;;14.24;73.12;100548.41;5010372;28;20058;-67
2021/09/11 02:16:41;;;;;;;12.65;6.38;;;;;;;14.22;73.38;100555.75;5010446;28;20114;-66
2021/09/11 02:19:07;;;;;;;10.43;6.30;;;;;;;14.09;73.48;100532.88;5010460;28;20290;-66
2021/09/11 02:21:33;;;;;;;14.95;5.95;;;;;;;14.13;73.97;100540.50;5010268;28;20084;-66
2021/09/11 02:23:58;;;;;;;15.48;6.00;;;;;;;14.10;73.81;100540.81;5010246;28;20052;-66
2021/09/11 02:26:24;;;;;;;14.10;6.78;;;;;;;14.05;74.03;100535.00;5010293;28;20120;-66
2021/09/11 02:28:49;;;;;;;13.85;6.30;;;;;;;14.08;74.17;100542.81;5010193;28;20545;-66
2021/09/11 02:31:15;;;;;;;11.52;6.43;;;;;;;14.02;74.87;100529.91;5008817;28;20040;-67
2021/09/11 02:33:43;;;;;;;14.57;6.90;;;;;;;14.03;74.71;100537.03;5008767;28;20075;-66
2021/09/11 02:36:09;;;;;;;12.02;7.25;;;;;;;14.01;74.72;100541.72;5010053;28;20483;-67
2021/09/11 02:38:34;;;;;;;10.57;6.75;;;;;;;14.01;75.20;100544.41;5027170;28;20021;-66
2021/09/11 02:41:00;;;;;;;19.10;6.97;;;;;;;14.00;75.02;100549.97;5029685;28;20110;-66
2021/09/11 02:43:25;;;;;;;11.40;7.20;;;;;;;13.99;75.36;100554.50;5029849;28;20024;-66
2021/09/11 02:45:51;;;;;;;12.18;6.53;;;;;;;13.85;75.70;100533.44;5029759;28;20026;-66
2021/09/11 02:48:16;;;;;;;14.88;6.82;;;;;;;13.90;75.79;100547.34;5029509;28;20029;-66
2021/09/11 02:50:42;;;;;;;12.90;7.88;;;;;;;13.93;75.23;100554.25;5029614;28;20017;-66
2021/09/11 02:53:08;;;;;;;14.57;7.32;;;;;;;13.90;75.05;100555.41;5029617;28;20502;-67
2021/09/11 02:55:33;;;;;;;13.55;7.32;;;;;;;13.90;75.38;100566.22;5029638;28;20079;-67
2021/09/11 02:57:58;;;;;;;15.40;6.93;;;;;;;13.83;75.54;100548.91;5029591;28;20112;-67
2021/09/11 03:00:24;;;;;;;10.75;7.30;;;;;;;13.89;76.02;100564.47;5029232;28;20044;-66
2021/09/11 03:02:49;;;;;;;15.23;8.05;;;;;;;13.89;75.94;100555.56;5029983;28;20520;-66
2021/09/11 03:05:15;;;;;;;17.27;7.93;;;;;;;13.89;75.99;100547.47;5034899;28;20544;-66
2021/09/11 03:07:40;;;;;;;13.05;7.78;;;;;;;13.88;75.65;100546.63;5018851;28;20076;-66
2021/09/11 03:10:06;;;;;;;13.65;6.88;;;;;;;13.83;75.67;100546.22;5025100;28;20513;-66
2021/09/11 03:12:32;;;;;;;11.68;7.32;;;;;;;13.88;75.45;100554.72;5035751;28;20029;-66
2021/09/11 03:14:58;;;;;;;10.82;7.13;;;;;;;13.90;75.57;100562.66;5036081;28;20040;-67
2021/09/11 03:17:23;;;;;;;10.95;7.28;;;;;;;13.89;75.70;100559.09;5035865;28;20084;-66
2021/09/11 03:19:49;;;;;;;16.45;7.55;;;;;;;13.87;75.93;100544.94;5035916;28;20026;-66
2021/09/11 03:22:14;;;;;;;13.20;6.18;;;;;;;13.84;76.20;100542.53;5035808;28;20031;-66
2021/09/11 03:24:40;;;;;;;10.90;7.63;;;;;;;13.87;76.48;100544.94;5035994;28;20112;-66
2021/09/11 03:27:06;;;;;;;11.13;6.78;;;;;;;13.91;75.82;100549.03;5035822;28;20041;-66
2021/09/11 03:29:31;;;;;;;19.50;7.57;;;;;;;13.85;75.82;100552.31;5035642;28;20029;-66
2021/09/11 03:31:56;;;;;;;15.45;7.38;;;;;;;13.87;75.89;100555.72;5034772;28;20073;-67
2021/09/11 03:34:22;;;;;;;12.68;7.18;;;;;;;13.84;75.54;100561.41;5035727;28;20029;-67
2021/09/11 03:36:47;;;;;;;9.00;6.50;;;;;;;13.84;75.79;100561.41;5035858;28;20021;-67
2021/09/11 03:39:13;;;;;;;12.75;7.72;;;;;;;13.83;75.13;100551.59;5035769;28;20413;-67
2021/09/11 03:41:39;;;;;;;11.02;6.60;;;;;;;13.79;75.04;100547.50;5035705;28;20025;-66
2021/09/11 03:44:04;;;;;;;11.05;7.10;;;;;;;13.83;75.75;100553.47;5035569;28;20056;-66
2021/09/11 03:46:30;;;;;;;15.60;7.97;;;;;;;13.82;76.05;100540.97;5035706;28;20700;-66
2021/09/11 03:48:55;;;;;;;14.27;7.47;;;;;;;13.82;76.20;100551.75;5050855;28;20037;-67
2021/09/11 03:51:21;;;;;;;14.25;7.15;;;;;;;13.82;76.16;100546.34;5035698;28;20029;-66
2021/09/11 03:53:46;;;;;;;16.27;7.78;;;;;;;13.77;76.37;100549.53;5035733;28;20017;-66
2021/09/11 03:56:12;;;;;;;16.08;8.27;;;;;;;13.71;76.49;100539.34;5035648;28;20033;-66
2021/09/11 03:58:37;;;;;;;15.88;7.25;;;;;;;13.72;76.38;100546.41;5035558;28;20036;-66
2021/09/11 04:01:03;;;;;;;18.35;7.78;;;;;;;13.71;76.61;100555.50;5035544;28;20116;-66
2021/09/11 04:03:30;;;;;;;14.65;7.60;;;;;;;13.69;77.44;100563.75;5035539;28;20116;-66
2021/09/11 04:05:55;;;;;;;12.32;7.72;;;;;;;13.67;77.74;100565.72;5035457;28;20040;-64
2021/09/11 04:08:21;;;;;;;15.50;7.47;;;;;;;13.66;77.34;100569.44;5035313;28;20033;-64
2021/09/11 04:10:46;;;;;;;19.05;8.50;;;;;;;13.64;78.04;100559.75;5023610;28;20038;-65
2021/09/11 04:13:13;;;;;;;22.35;8.60;;;;;;;13.63;80.05;100558.09;5015577;28;20022;-64
2021/09/11 04:15:38;;;;;;;20.10;8.52;;;;;;;13.62;79.60;100564.47;5014457;28;20482;-64
2021/09/11 04:18:03;;;;;;;23.52;8.45;;;;;;;13.62;79.75;100565.34;5012795;28;20084;-63
2021/09/11 04:20:29;;;;;;;21.23;7.85;;;;;;;13.69;78.97;100579.91;5011381;28;20022;-64
2021/09/11 04:22:55;;;;;;;16.23;8.05;;;;;;;13.63;79.17;100567.03;5027724;28;20022;-64
2021/09/11 04:25:20;;;;;;;15.85;8.43;;;;;;;13.69;79.31;100574.53;5021538;28;20550;-64
2021/09/11 04:27:46;;;;;;;13.43;8.35;;;;;;;13.72;78.63;100578.75;5017563;28;20055;-65
2021/09/11 04:30:12;;;;;;;15.63;7.47;;;;;;;13.76;79.46;100576.63;5016763;28;20034;-66
2021/09/11 04:32:38;;;;;;;14.93;7.93;;;;;;;13.70;79.74;100553.78;5012402;28;20037;-66
2021/09/11 04:35:04;;;;;;;13.30;8.60;;;;;;;13.71;78.49;100556.34;5012530;28;20053;-66
2021/09/11 04:37:29;;;;;;;17.75;8.90;;;;;;;13.66;77.29;100557.78;5011321;28;20034;-66
2021/09/11 04:39:55;;;;;;;13.50;7.50;;;;;;;13.64;77.48;100559.75;5012311;28;20129;-67
2021/09/11 04:42:21;;;;;;;12.38;8.13;;;;;;;13.75;77.30;100578.47;5012313;28;20557;-66
2021/09/11 04:44:46;;;;;;;16.20;8.75;;;;;;;13.72;77.93;100562.59;5014053;28;20660;-65
2021/09/11 04:47:12;;;;;;;23.00;8.82;;;;;;;13.77;79.64;100568.41;5019032;28;20041;-67
2021/09/11 04:49:37;;;;;;;23.13;8.82;;;;;;;13.76;79.12;100565.84;5019275;28;20053;-66
2021/09/11 04:52:04;;;;;;;20.60;8.43;;;;;;;13.77;78.56;100565.69;5022033;28;20029;-66
2021/09/11 04:54:29;;;;;;;16.85;8.27;;;;;;;13.74;78.03;100557.91;5022745;28;20497;-66
2021/09/11 04:56:55;;;;;;;21.25;9.13;;;;;;;13.78;78.23;100578.19;5019058;28;20021;-66
2021/09/11 04:59:20;;;;;;;21.75;9.10;;;;;;;13.78;78.48;100572.78;5019809;28;20096;-66
2021/09/11 05:01:46;;;;;;;25.75;10.10;;;;;;;13.70;78.65;100560.03;5012320;28;20398;-66
2021/09/11 05:04:11;;;;;;;18.27;10.38;;;;;;;13.80;78.92;100583.41;5011811;28;20479;-66
2021/09/11 05:06:36;;;;;;;19.02;9.00;;;;;;;13.81;79.20;100571.63;5011716;28;20029;-66
2021/09/11 05:09:02;;;;;;;19.33;8.77;;;;;;;13.75;79.62;100565.00;5027564;28;20033;-66
2021/09/11 05:11:28;;;;;;;16.95;9.60;;;;;;;13.85;79.83;100571.19;5011912;28;20045;-66
2021/09/11 05:13:53;;;;;;;22.45;10.02;;;;;;;13.93;79.89;100582.06;5024278;28;20477;-66
2021/09/11 05:16:19;;;;;;;20.10;8.73;;;;;;;13.94;79.72;100586.47;5031803;28;20485;-66
2021/09/11 05:18:44;;;;;;;14.48;9.43;;;;;;;14.00;79.32;100577.78;5047224;28;20041;-66
2021/09/11 05:21:09;;;;;;;18.88;9.90;;;;;;;13.96;79.87;100560.19;5047160;28;20029;-66
2021/09/11 05:23:35;;;;;;;13.82;8.65;;;;;;;14.13;79.67;100578.28;5030470;28;20667;-66
2021/09/11 05:26:03;;;;;;;22.48;9.40;;;;;;;14.20;79.65;100571.28;5031755;28;20642;-66
2021/09/11 05:28:29;;;;;;;15.02;8.45;;;;;;;14.29;79.63;100572.25;5030316;28;20028;-66
2021/09/11 05:30:54;;;;;;;18.77;9.13;;;;;;;14.33;79.11;100561.00;5011720;28;20088;-66
2021/09/11 05:33:20;;;;;;;15.65;9.20;;;;;;;14.49;78.78;100581.91;5011903;28;20117;-66
2021/09/11 05:35:45;;;;;;;19.83;8.75;;;;;;;14.52;77.86;100558.16;5011808;28;20101;-66
2021/09/11 05:38:11;;;;;;;19.13;9.07;;;;;;;14.58;77.53;100545.88;5011834;28;20026;-66
2021/09/11 05:40:36;;;;;;;16.95;8.90;;;;;;;14.80;77.44;100567.03;5010538;28;20112;-66
2021/09/11 05:43:02;;;;;;;15.73;8.45;;;;;;;14.93;77.17;100572.88;5011947;28;20570;-64
2021/09/11 05:45:27;;;;;;;14.13;8.63;;;;;;;15.02;76.42;100561.09;5010879;28;20033;-64
2021/09/11 05:47:53;;;;;;;13.50;9.10;;;;;;;15.18;75.67;100559.38;5011086;28;20057;-64
2021/09/11 05:50:18;;;;;;;16.20;8.50;;;;;;;15.28;75.11;100561.97;5015295;28;20060;-64
2021/09/11 05:52:43;;;;;;;15.07;9.10;;;;;;;15.49;74.57;100566.06;5011631;28;20030;-64
2021/09/11 05:55:09;;;;;;;13.52;8.43;;;;;;;15.56;73.57;100550.88;5011267;28;20031;-65
2021/09/11 05:57:35;;;;;;;15.18;8.70;;;;;;;15.78;72.48;100560.28;5009842;28;20037;-64
2021/09/11 06:00:00;;;;;;;21.40;8.70;;;;;;;15.87;72.26;100549.31;5011232;28;20391;-64
2021/09/11 06:02:26;;;;;;;19.17;9.05;;;;;;;16.12;71.54;100555.66;5011587;28;20022;-64
2021/09/11 06:04:52;;;;;;;17.65;8.82;;;;;;;16.27;70.56;100558.59;5025637;28;20470;-63
2021/09/11 06:07:18;;;;;;;17.20;8.93;;;;;;;16.48;69.56;100562.56;5046205;28;20036;-64
2021/09/11 06:09:44;;;;;;;18.73;9.43;;;;;;;16.66;68.70;100562.44;5040868;28;20072;-64
2021/09/11 06:12:12;;;;;;;19.70;9.55;;;;;;;16.84;68.18;100557.72;5030868;28;20061;-64
2021/09/11 06:14:38;;;;;;;16.10;8.73;;;;;;;17.12;66.65;100568.03;5045940;28;20021;-64
2021/09/11 06:17:05;;;;;;;19.63;8.65;;;;;;;17.33;65.54;100575.63;5029283;28;20017;-66
2021/09/11 06:19:30;;;;;;;17.33;9.02;;;;;;;17.55;64.67;100566.81;5030008;28;20402;-65
2021/09/11 06:21:56;;;;;;;14.32;8.18;;;;;;;17.75;63.17;100565.41;5030602;28;20029;-64
2021/09/11 06:24:21;;;;;;;18.20;8.48;;;;;;;17.99;62.67;100557.16;5030466;28;20036;-65
2021/09/11 06:26:47;;;;;;;15.25;8.38;;;;;;;18.23;62.02;100567.91;5029376;28;20080;-64
2021/09/11 06:29:12;;;;;;;14.02;8.18;;;;;;;18.46;61.25;100562.56;5030866;28;20086;-64
2021/09/11 06:31:37;;;;;;;14.77;8.15;;;;;;;18.65;60.08;100557.50;5027994;28;20025;-65
2021/09/11 06:34:03;;;;;;;13.80;8.00;;;;;;;18.88;59.69;100552.91;5018043;28;20030;-64
2021/09/11 06:36:28;;;;;;;16.58;8.60;;;;;;;19.11;59.28;100561.88;5011285;28;20034;-65
2021/09/11 06:38:54;;;;;;;18.55;7.93;;;;;;;19.34;58.19;100562.72;5016508;28;20030;-65
2021/09/11 06:41:19;;;;;;;17.08;8.63;;;;;;;19.55;57.38;100567.44;5010285;28;20032;-65
2021/09/11 06:43:45;;;;;;;13.90;7.30;;;;;;;19.73;55.82;100565.19;5010313;28;20067;-66
2021/09/11 06:46:10;;;;;;;14.93;8.18;;;;;;;19.91;55.32;100563.81;5012724;28;20047;-65
2021/09/11 06:48:35;;;;;;;12.00;7.47;;;;;;;20.11;54.98;100564.94;5010237;28;20045;-65
2021/09/11 06:51:01;;;;;;;15.90;7.70;;;;;;;20.28;54.23;100562.81;5010147;28;20034;-65
2021/09/11 06:53:26;;;;;;;16.67;7.80;;;;;;;20.46;53.82;100559.69;5005980;28;20021;-66
2021/09/11 06:55:53;;;;;;;13.27;7.72;;;;;;;20.61;53.20;100560.50;5008501;28;20033;-65
2021/09/11 06:58:18;;;;;;;14.02;7.25;;;;;;;20.83;52.48;100554.84;5023810;28;20017;-65
2021/09/11 07:00:44;;;;;;;17.38;7.22;;;;;;;21.06;51.97;100562.88;5027348;28;20021;-65
2021/09/11 07:03:09;;;;;;;15.02;7.93;;;;;;;21.24;51.51;100557.78;5028422;28;20520;-66
2021/09/11 07:05:35;;;;;;;14.93;8.13;;;;;;;21.45;50.98;100568.66;5025290;28;20056;-66
2021/09/11 07:08:00;;;;;;;12.82;7.13;;;;;;;21.61;50.89;100563.72;5007412;28;20041;-65
2021/09/11 07:10:25;;;;;;;16.27;7.28;;;;;;;21.71;50.46;100556.06;5009474;28;20103;-65
2021/09/11 07:12:51;;;;;;;19.85;7.82;;;;;;;21.90;49.97;100549.03;5006035;28;20084;-65
2021/09/11 07:15:17;;;;;;;15.25;7.55;;;;;;;22.11;49.84;100560.72;5010452;28;20084;-66
2021/09/11 07:17:42;;;;;;;19.33;7.43;;;;;;;22.32;48.94;100559.75;5004921;28;20021;-65
2021/09/11 07:20:08;;;;;;;10.80;6.80;;;;;;;22.52;48.44;100560.69;5005718;28;20033;-65
2021/09/11 07:22:34;;;;;;;9.98;6.20;;;;;;;22.71;48.12;100557.16;5006156;28;20498;-67
2021/09/11 07:24:59;;;;;;;14.93;7.10;;;;;;;22.87;47.79;100562.25;5004839;28;20052;-66
2021/09/11 07:27:25;;;;;;;17.00;7.18;;;;;;;23.01;47.22;100554.88;5006364;28;20033;-66
2021/09/11 07:29:50;;;;;;;16.75;6.53;;;;;;;23.18;46.64;100557.00;5006845;28;20033;-65
2021/09/11 07:32:16;;;;;;;16.88;6.82;;;;;;;23.34;45.93;100553.88;5005952;28;20494;-65
2021/09/11 07:34:42;;;;;;;18.52;6.68;;;;;;;23.56;45.85;100559.97;5020928;28;20097;-65
2021/09/11 07:37:07;;;;;;;13.75;6.45;;;;;;;23.65;45.38;100556.81;5036943;28;20032;-65
2021/09/11 07:39:33;;;;;;;16.40;6.78;;;;;;;23.83;45.28;100565.19;5040177;28;20397;-65
2021/09/11 07:41:58;;;;;;;14.30;7.05;;;;;;;23.94;45.35;100545.38;5026539;28;20390;-65
2021/09/11 07:44:23;;;;;;;15.30;6.75;;;;;;;24.21;44.94;100559.81;5026015;28;20036;-65
2021/09/11 07:46:49;;;;;;;11.30;6.05;;;;;;;24.33;43.64;100550.72;5025246;28;20030;-65
2021/09/11 07:49:15;;;;;;;13.32;5.57;;;;;;;24.62;43.91;100557.53;5007097;28;20040;-65
2021/09/11 07:51:40;;;;;;;11.68;6.00;;;;;;;24.91;43.39;100561.59;5012284;28;20129;-64
2021/09/11 07:54:06;;;;;;;18.35;6.35;;;;;;;25.19;42.67;100556.53;5013674;28;20052;-65
2021/09/11 07:56:31;;;;;;;18.88;5.97;;;;;;;25.56;41.83;100552.84;5011553;28;20033;-65
2021/09/11 07:58:57;;;;;;;13.02;6.20;;;;;;;26.14;40.58;100548.66;5012864;28;20033;-65
2021/09/11 08:01:22;;;;;;;14.90;5.72;;;;;;;26.87;38.71;100538.38;5013124;28;20032;-65
2021/09/11 08:03:47;;;;;;;22.38;6.22;;;;;;;27.74;36.96;100530.13;5027488;28;20032;-68
2021/09/11 08:06:13;;;;;;;13.50;5.30;;;;;;;28.72;35.01;100530.88;5012858;28;20022;-67
2021/09/11 08:08:39;;;;;;;17.30;5.20;;;;;;;29.92;32.99;100538.47;5013276;28;21014;-68
2021/09/11 08:11:06;;;;;;;11.93;5.13;;;;;;;31.17;31.07;100528.09;5013247;28;20061;-68
2021/09/11 08:13:32;;;;;;;12.60;4.93;;;;;;;32.27;29.09;100515.78;5013183;28;20116;-67
2021/09/11 08:15:58;;;;;;;18.65;5.05;;;;;;;33.29;27.92;100524.13;5011861;28;20116;-69
2021/09/11 08:18:24;;;;;;;10.23;4.45;;;;;;;34.29;26.06;100509.19;5013025;28;20390;-67
2021/09/11 08:20:51;;;;;;;16.70;5.22;;;;;;;35.02;25.30;100513.00;5013049;28;20022;-67
2021/09/11 08:23:18;;;;;;;14.52;5.03;;;;;;;35.69;24.37;100508.22;5012847;28;20053;-67
2021/09/11 08:25:45;;;;;;;14.45;5.00;;;;;;;36.41;24.06;100505.19;5012748;28;20022;-67
2021/09/11 08:28:12;;;;;;;10.32;4.47;;;;;;;36.83;23.91;100501.53;5012594;28;20018;-67
2021/09/11 08:30:37;;;;;;;12.60;4.65;;;;;;;37.25;23.23;100503.38;5012236;28;20470;-67
2021/09/11 08:33:02;;;;;;;29.45;5.00;;;;;;;37.65;22.37;100495.13;5012440;28;20071;-67
2021/09/11 08:35:28;;;;;;;8.93;4.63;;;;;;;38.14;21.62;100512.09;5012361;28;20048;-65
2021/09/11 08:37:53;;;;;;;10.60;4.15;;;;;;;38.50;21.32;100514.97;5010936;28;20108;-67
2021/09/11 08:40:21;;;;;;;9.45;4.07;;;;;;;38.78;20.49;100507.38;5012409;28;20026;-63
2021/09/11 08:42:46;;;;;;;10.18;4.10;;;;;;;38.97;20.54;100503.25;5012245;28;20050;-65
2021/09/11 08:45:15;;;;;;;10.07;4.10;;;;;;;39.38;20.72;100497.44;5012460;28;20111;-65
2021/09/11 08:47:45;;;;;;;8.50;4.57;;;;;;;39.62;20.38;100501.59;5012358;28;20172;-65
2021/09/11 08:50:17;;;;;;;7.00;4.20;;;;;;;39.81;19.88;100505.03;5012148;28;20053;-65
2021/09/11 08:52:47;;;;;;;10.57;4.50;;;;;;;39.82;20.19;100492.66;5012388;28;20022;-65
2021/09/11 08:55:14;;;;;;;8.18;3.95;;;;;;;39.78;20.14;100491.59;5012282;28;20034;-65
2021/09/11 08:57:40;;;;;;;7.95;4.22;;;;;;;39.28;20.43;100489.28;5011933;28;20030;-65
2021/09/11 09:00:08;;;;;;;5.78;3.58;;;;;;;38.71;20.94;100498.56;5012059;28;20030;-65
2021/09/11 09:02:35;;;;;;;11.57;3.83;;;;;;;37.85;21.87;100511.53;5011328;28;20060;-65
2021/09/11 09:05:02;;;;;;;6.93;3.80;;;;;;;36.99;22.21;100505.75;5027117;28;20406;-65
2021/09/11 09:07:32;;;;;;;4.70;3.60;;;;;;;36.05;23.01;100501.16;5011863;28;20033;-65
2021/09/11 09:10:08;;;;;;;3.95;3.55;;;;;;;35.33;24.17;100498.53;5026585;28;20041;-65
2021/09/11 09:12:37;;;;;;;5.97;4.45;;;;;;;34.71;24.80;100506.75;5026803;28;20474;-64
2021/09/11 09:15:06;;;;;;;10.07;3.75;;;;;;;34.11;25.14;100513.44;5010401;28;20092;-65
2021/09/11 09:17:42;;;;;;;7.50;3.92;;;;;;;33.48;26.15;100510.50;5009333;28;20397;-65
2021/09/11 09:20:10;;;;;;;9.15;3.97;;;;;;;32.95;26.83;100499.91;5011703;28;20068;-64
2021/09/11 09:22:36;;;;;;;9.30;4.30;;;;;;;32.54;27.43;100491.50;5011704;28;20557;-65
2021/09/11 09:25:01;;;;;;;13.13;4.15;;;;;;;32.14;27.67;100490.50;5012573;28;20037;-64
2021/09/11 09:27:27;;;;;;;9.77;3.70;;;;;;;31.89;28.32;100482.84;5011983;28;20044;-64
2021/09/11 09:30:00;;;;;;;6.38;3.83;;;;;;;31.70;28.12;100489.97;5011184;28;20034;-66
2021/09/11 09:32:36;;;;;;;5.80;3.80;;;;;;;31.37;28.45;100467.28;5011246;28;20048;-64
2021/09/11 09:35:15;;;;;;;6.28;3.90;;;;;;;31.30;28.80;100497.16;5010158;28;20126;-64
2021/09/11 09:38:20;;;;;;;8.63;4.03;;;;;;;30.96;28.95;100488.25;5011220;28;20030;-65
2021/09/11 09:40:50;;;;;;;8.25;3.78;;;;;;;30.96;29.09;100496.56;4969982;28;20030;-66
2021/09/11 09:43:32;;;;;;;5.10;4.10;;;;;;;30.84;28.85;100490.34;4953573;28;20027;-65
2021/09/11 09:46:13;;;;;;;7.80;3.45;;;;;;;30.73;28.92;100491.38;4986071;28;20038;-66
2021/09/11 09:48:40;;;;;;;7.30;3.50;;;;;;;30.65;29.17;100490.97;5009407;28;20026;-65
2021/09/11 09:51:09;;;;;;;4.90;3.65;;;;;;;30.60;28.86;100478.72;5010926;28;20042;-65
2021/09/11 09:53:35;;;;;;;5.90;3.45;;;;;;;30.49;28.67;100478.88;5011063;28;20029;-66
2021/09/11 09:56:01;;;;;;;7.15;3.60;;;;;;;30.37;29.02;100458.84;5011232;28;20030;-66
2021/09/11 09:58:26;;;;;;;5.30;3.40;;;;;;;30.45;28.30;100477.72;5010886;28;20384;-66
2021/09/11 10:00:52;;;;;;;3.85;3.40;;;;;;;30.36;27.89;100477.38;5009911;28;20044;-66
2021/09/11 10:03:18;;;;;;;8.10;3.25;;;;;;;30.23;27.89;100476.91;5011164;28;20081;-65
2021/09/11 10:05:48;;;;;;;5.72;3.42;;;;;;;30.14;28.07;100472.91;5022282;28;20033;-65
2021/09/11 10:08:16;;;;;;;4.95;3.30;;;;;;;30.10;27.75;100468.97;5030290;28;20071;-65
2021/09/11 10:10:48;;;;;;;6.25;3.35;;;;;;;30.04;27.80;100475.53;5030273;28;20045;-65
2021/09/11 10:13:19;;;;;;;6.28;3.60;;;;;;;30.02;28.34;100478.56;5030261;28;20083;-65
2021/09/11 10:15:53;;;;;;;6.70;3.28;;;;;;;30.04;28.18;100472.78;5030528;28;20386;-65
2021/09/11 10:18:43;;;;;;;3.15;2.90;;;;;;;30.01;28.35;100465.84;5030934;28;20095;-66
2021/09/11 10:21:17;;;;;;;8.18;2.90;;;;;;;30.02;29.10;100469.44;5023084;28;20041;-66
2021/09/11 10:24:05;;;;;;;4.22;2.90;;;;;;;30.01;28.63;100476.91;5030843;28;20581;-65
2021/09/11 10:26:47;;;;;;;4.97;3.80;;;;;;;30.00;28.15;100472.47;5030445;28;20095;-65
2021/09/11 10:29:39;;;;;;;7.68;3.08;;;;;;;29.97;27.33;100461.06;5030524;28;20482;-65
2021/09/11 10:32:06;;;;;;;6.15;3.90;;;;;;;29.95;33.42;100463.28;5030664;28;20033;-66
2021/09/11 10:34:47;;;;;;;8.55;3.40;;;;;;;29.80;32.64;100452.00;5030485;28;20124;-65
2021/09/11 10:37:40;;;;;;;6.45;3.90;;;;;;;29.65;33.97;100452.63;5030375;28;20035;-64
2021/09/11 10:40:33;;;;;;;6.47;3.35;;;;;;;29.56;32.05;100456.88;5019232;28;20053;-65
2021/09/11 10:43:04;;;;;;;6.43;3.33;;;;;;;29.38;28.89;100459.97;5023248;28;20039;-65
2021/09/11 10:45:39;;;;;;;7.68;3.75;;;;;;;29.26;30.29;100461.13;5029721;28;20021;-65
2021/09/11 10:48:06;;;;;;;6.93;4.03;;;;;;;29.08;29.13;100450.34;5027950;28;20037;-66
2021/09/11 10:50:39;;;;;;;4.57;3.53;;;;;;;29.04;31.11;100455.53;5044447;28;20045;-65
2021/09/11 10:53:24;;;;;;;4.25;3.15;;;;;;;28.95;30.84;100457.00;5027564;28;20091;-65
2021/09/11 10:55:50;;;;;;;7.93;3.38;;;;;;;28.84;30.43;100449.66;5027275;28;20018;-65
2021/09/11 10:58:25;;;;;;;6.60;3.58;;;;;;;28.82;32.41;100443.53;5028488;28;20343;-65
2021/09/11 11:00:58;;;;;;;4.65;3.25;;;;;;;28.76;33.44;100443.69;5005323;28;20417;-65
2021/09/11 11:03:24;;;;;;;5.45;3.42;;;;;;;28.71;33.30;100438.91;5009399;28;20030;-65
2021/09/11 11:06:03;;;;;;;4.95;3.17;;;;;;;28.61;30.84;100440.66;5008819;28;20033;-66
2021/09/11 11:08:30;;;;;;;3.95;2.80;;;;;;;28.62;29.30;100436.84;5008916;28;20364;-65
2021/09/11 11:10:55;;;;;;;4.28;2.95;;;;;;;28.51;30.39;100428.34;5008449;28;20057;-65
2021/09/11 11:13:24;;;;;;;8.52;3.00;;;;;;;28.46;29.58;100436.53;5009112;28;20025;-65
2021/09/11 11:15:54;;;;;;;6.25;3.20;;;;;;;28.38;30.67;100422.28;5009311;28;20034;-66
2021/09/11 11:18:20;;;;;;;5.57;3.20;;;;;;;28.32;33.12;100417.75;5009150;28;20034;-65
2021/09/11 11:20:45;;;;;;;5.53;3.03;;;;;;;28.32;31.08;100426.03;5019038;28;20056;-65